Atlantic Tiger — 7JFT — position and weather

sailwx.info

Track history (hours):
 
Tides and Currents Weather Stations Pressure Air Temp Water Temp Dewpoint Dewpoint Depression Visibility Wind Speed Wind Dir Waves Ship Positions

Atlantic Tiger

Last reported at 2017-Nov-25 00:38 UTC. Time now 2017-Dec-12 04:33 UTC.
Position N 39°17' W 010°55'.
Warning: this ship's position is 17 days out of date.

Length 289 m; draft 17.1 m.

Type: Ship. MMSI: 432719000.

Date/timePositionNaut miles runAvg speedWind from/ knotsBaromVisibWave heightAir tempDewpointWater temp
2017-Nov-25 00:38N 39°17' W 010°55'212.5
2017-Nov-25 00:27N 39°15' W 010°56'1812.4
2017-Nov-24 23:01N 38°58' W 011°05'012.1
2017-Nov-24 23:00N 38°58' W 011°05'5912.2
2017-Nov-24 18:10N 38°03' W 011°32'212.4
2017-Nov-24 18:00N 38°01' W 011°33'2412.5
2017-Nov-24 16:05N 37°39' W 011°44'513.0
2017-Nov-24 15:43N 37°34' W 011°46'413.0
2017-Nov-24 15:26N 37°31' W 011°48'613.1
2017-Nov-24 15:00N 37°26' W 011°51'5613.3
2017-Nov-24 10:45N 36°33' W 012°17'8913.2
2017-Nov-24 03:58N 35°11' W 012°59'1313.6
2017-Nov-24 03:00N 34°58' W 013°04'713.4
2017-Nov-24 02:30N 34°52' W 013°07'3213.5
2017-Nov-24 00:09N 34°23' W 013°21'213.4
2017-Nov-24 00:00N 34°21' W 013°22'25413.4
2017-Nov-23 04:59N 30°25' W 015°14'1413.2
2017-Nov-23 03:55N 30°11' W 015°20'1413.2
2017-Nov-23 02:52N 29°59' W 015°25'513.2
2017-Nov-23 02:30N 29°54' W 015°28'713.2
2017-Nov-23 02:00N 29°48' W 015°31'2513.2
2017-Nov-23 00:05N 29°25' W 015°42'613.6
2017-Nov-22 23:40N 29°19' W 015°44'3213.5
2017-Nov-22 21:16N 28°49' W 015°58'413.7
2017-Nov-22 21:00N 28°46' W 015°59'713.5
2017-Nov-22 20:30N 28°39' W 016°02'611.8
2017-Nov-22 20:00N 28°34' W 016°05'5 9.3
2017-Nov-22 19:29N 28°30' W 016°07'  
Track history (hours):
 
Tides and Currents Weather Stations Pressure Air Temp Water Temp Dewpoint Dewpoint Depression Visibility Wind Speed Wind Dir Waves Ship Positions

Atlantic Tiger

Last reported at 2017-Nov-25 00:38 UTC. Time now 2017-Dec-12 04:33 UTC.
Position N 39°17' W 010°55'.
Warning: this ship's position is 17 days out of date.

Length 289 m; draft 17.1 m.

Type: Ship. MMSI: 432719000.

Date/timePositionNaut miles runAvg speedWind from/ knotsBaromVisibWave heightAir tempDewpointWater temp
2017-Nov-25 00:38N 39°17' W 010°55'212.5
2017-Nov-25 00:27N 39°15' W 010°56'1812.4
2017-Nov-24 23:01N 38°58' W 011°05'012.1
2017-Nov-24 23:00N 38°58' W 011°05'5912.2
2017-Nov-24 18:10N 38°03' W 011°32'212.4
2017-Nov-24 18:00N 38°01' W 011°33'2412.5
2017-Nov-24 16:05N 37°39' W 011°44'513.0
2017-Nov-24 15:43N 37°34' W 011°46'413.0
2017-Nov-24 15:26N 37°31' W 011°48'613.1
2017-Nov-24 15:00N 37°26' W 011°51'5613.3
2017-Nov-24 10:45N 36°33' W 012°17'8913.2
2017-Nov-24 03:58N 35°11' W 012°59'1313.6
2017-Nov-24 03:00N 34°58' W 013°04'713.4
2017-Nov-24 02:30N 34°52' W 013°07'3213.5
2017-Nov-24 00:09N 34°23' W 013°21'213.4
2017-Nov-24 00:00N 34°21' W 013°22'25413.4
2017-Nov-23 04:59N 30°25' W 015°14'1413.2
2017-Nov-23 03:55N 30°11' W 015°20'1413.2
2017-Nov-23 02:52N 29°59' W 015°25'513.2
2017-Nov-23 02:30N 29°54' W 015°28'713.2
2017-Nov-23 02:00N 29°48' W 015°31'2513.2
2017-Nov-23 00:05N 29°25' W 015°42'613.6
2017-Nov-22 23:40N 29°19' W 015°44'3213.5
2017-Nov-22 21:16N 28°49' W 015°58'413.7
2017-Nov-22 21:00N 28°46' W 015°59'713.5
2017-Nov-22 20:30N 28°39' W 016°02'611.8
2017-Nov-22 20:00N 28°34' W 016°05'5 9.3
2017-Nov-22 19:29N 28°30' W 016°07'  

Dump ship's entire track history